Nearby METAR Reports

 

KDPA - Chicago/Dupage, Illinois, USA
Distance from station: NW 11mi, 18km
Updated: Fri, 14-Aug-2020 1:52pm CDT
Clear
Clear
 Wind from varies
Wind: varies 7 mph , 11 km/h
Temperature: 88°F , 31°C
Dew Point: 57°F , 14°C
Humidity: 35%
Barometer: 30.01 inHg , 1016.3 hPa
Clouds: Clear
Visibility: 10 miles , 16 km
2020/08/14 18:52 KDPA 141852Z VRB06KT 10SM CLR 31/14 A3001 RMK AO2 SLP156 T03110144
KLOT - Romeoville/Chi, Illinois, USA
Distance from station: S 13mi, 21km
Updated: Fri, 14-Aug-2020 1:55pm CDT
Clear
Clear
 Wind from ENE
Wind: ENE 7 mph , 11 km/h
Temperature: 88°F , 31°C
Heat Index: 88°F , 31°C
Dew Point: 61°F , 16°C
Humidity: 40%
Barometer: 30.01 inHg , 1016.3 hPa
Clouds: Clear
Visibility: 10 miles , 16 km
2020/08/14 18:55 KLOT 141855Z AUTO 07006KT 10SM CLR 31/16 A3001 RMK AO2 T03100157
 
KORD - Chicago O'Hare, Illinois, USA
Distance from station: NE 17mi, 27km
Updated: Fri, 14-Aug-2020 1:51pm CDT
Few Clouds
Few Clouds
 Wind from NNE
Wind: NNE 13 mph , 20 km/h
Temperature: 88°F , 31°C
Dew Point: 55°F , 13°C
Humidity: 33%
Barometer: 30.01 inHg , 1016.3 hPa
Clouds: Few Clouds
Visibility: 10 miles , 16 km
Cloud details: Few Clouds 7000 ft
2020/08/14 18:51 KORD 141851Z 02011KT 10SM FEW070 31/13 A3001 RMK AO2 SLP157 T03110128
KARR - Chicago/Aurora, Illinois, USA
Distance from station: W 19mi, 30km
Updated: Fri, 14-Aug-2020 1:52pm CDT
Clear
Clear
 Wind from NE
Wind: NE 5 mph , 7 km/h
Temperature: 88°F , 31°C
Dew Point: 57°F , 14°C
Humidity: 35%
Barometer: 30.01 inHg , 1016.3 hPa
Clouds: Clear
Visibility: 10 miles , 16 km
2020/08/14 18:52 KARR 141852Z 04004KT 10SM CLR 31/14 A3001 RMK AO2 SLP156 T03110139
 
KJOT - Joliet, Illinois, USA
Distance from station: S 19mi, 31km
Updated: Fri, 14-Aug-2020 1:55pm CDT
Clear
Clear
 Wind from E
Wind: E 9 mph , 15 km/h
Temperature: 88°F , 31°C
Heat Index: 89°F , 32°C
Dew Point: 63°F , 17°C
Humidity: 43%
Barometer: 30.00 inHg , 1015.9 hPa
Clouds: Clear
Visibility: 10 miles , 16 km
2020/08/14 18:55 KJOT 141855Z AUTO 09008KT 070V130 10SM CLR 31/17 A3000 RMK AO2 T03140168
KMDW - Chicago, Illinois, USA
Distance from station: E 19mi, 31km
Updated: Fri, 14-Aug-2020 1:53pm CDT
Few Clouds
Few Clouds
 Wind from NE
Wind: NE 13 mph , 20 km/h
Temperature: 88°F , 31°C
Dew Point: 55°F , 13°C
Humidity: 33%
Barometer: 30.00 inHg , 1015.9 hPa
Clouds: Few Clouds
Visibility: 10 miles , 16 km
Cloud details: Few Clouds 20000 ft
2020/08/14 18:53 KMDW 141853Z 04011KT 10SM FEW200 31/13 A3000 RMK AO2 SLP149 T03110128
 
KPWK - Palwaukee, Illinois, USA
Distance from station: NNE 25mi, 41km
Updated: Fri, 14-Aug-2020 1:52pm CDT
Clear
Clear
 Wind from NE
Wind: NE 9 mph , 15 km/h
Temperature: 88°F , 31°C
Dew Point: 57°F , 14°C
Humidity: 35%
Barometer: 30.03 inHg , 1016.9 hPa
Clouds: Clear
Visibility: 10 miles , 16 km
2020/08/14 18:52 KPWK 141852Z 05008KT 10SM CLR 31/14 A3003 RMK AO2 SLP165 T03110139
KC09 - Morris-Washburn, Illinois, USA
Distance from station: SSW 29mi, 47km
Updated: Fri, 14-Aug-2020 1:55pm CDT
Partly cloudy
Partly cloudy
 Wind from ESE
Wind: ESE 3 mph , 6 km/h
Temperature: 86°F , 30°C
Heat Index: 87°F , 31°C
Dew Point: 63°F , 17°C
Humidity: 46%
Barometer: 29.99 inHg , 1015.6 hPa
Clouds: Partly cloudy
Visibility: 10 miles , 16 km
Cloud details: Partly cloudy 6000 ft
2020/08/14 18:55 KC09 141855Z AUTO 12003KT 10SM SCT060 30/17 A2999 RMK AO2 T03000172
 
KDKB - De Kalb, Illinois, USA
Distance from station: WNW 31mi, 50km
Updated: Fri, 14-Aug-2020 1:55pm CDT
Clear
Clear
 Wind from calm
Wind: Calm
Temperature: 86°F , 30°C
Heat Index: 87°F , 31°C
Dew Point: 63°F , 17°C
Humidity: 46%
Barometer: 30.04 inHg , 1017.3 hPa
Clouds: Clear
Visibility: 10 miles , 16 km
2020/08/14 18:55 KDKB 141855Z AUTO 00000KT 10SM CLR 30/17 A3004 RMK AO2 T02960171
KIGQ - Chicago/Lansing, Illinois, USA
Distance from station: ESE 35mi, 57km
Updated: Fri, 14-Aug-2020 1:55pm CDT
Clear
Clear
 Wind from ENE
Wind: ENE 13 mph , 20 km/h
Temperature: 84°F , 29°C
Heat Index: 84°F , 29°C
Dew Point: 61°F , 16°C
Humidity: 45%
Barometer: 30.00 inHg , 1015.9 hPa
Clouds: Clear
Visibility: 10 miles , 16 km
2020/08/14 18:55 KIGQ 141855Z AUTO 06011KT 10SM CLR 29/16 A3000 RMK AO2 T02900159
 
KGYY - Gary Regional, Indiana, USA
Distance from station: ESE 38mi, 62km
Updated: Fri, 14-Aug-2020 1:45pm CDT
Few Clouds
Few Clouds
 Wind from N
Wind: N 7 mph , 11 km/h
Temperature: 81°F , 27°C
Heat Index: 84°F , 29°C
Dew Point: 68°F , 20°C
Humidity: 66%
Barometer: 30.02 inHg , 1016.6 hPa
Clouds: Few Clouds
Visibility: 10 miles , 16 km
Cloud details: Few Clouds 20000 ft
2020/08/14 18:45 KGYY 141845Z 01006KT 10SM FEW200 27/20 A3002
KUGN - Waukegan, Illinois, USA
Distance from station: NNE 45mi, 73km
Updated: Fri, 14-Aug-2020 1:55pm CDT
Clear
Clear
 Wind from ENE
Wind: ENE 7 mph , 11 km/h
Temperature: 82°F , 28°C
Heat Index: 82°F , 28°C
Dew Point: 59°F , 15°C
Humidity: 45%
Barometer: 30.03 inHg , 1016.9 hPa
Clouds: Clear
Visibility: 10 miles , 16 km
2020/08/14 18:55 KUGN 141855Z 06006KT 10SM CLR 28/15 A3003 RMK AO2 SLP158 T02830150
 
KRPJ - Rochelle/Koritz, Illinois, USA
Distance from station: W 50mi, 80km
Updated: Fri, 14-Aug-2020 1:55pm CDT
Partly cloudy
Partly cloudy
 Wind from E
Wind: E 6 mph , 9 km/h
Temperature: 84°F , 29°C
Heat Index: 85°F , 29°C
Dew Point: 64°F , 18°C
Humidity: 51%
Barometer: 30.03 inHg , 1016.9 hPa
Clouds: Partly cloudy
Visibility: 10 miles , 16 km
Cloud details: Partly cloudy 4900 ft
2020/08/14 18:55 KRPJ 141855Z AUTO 10005KT 10SM SCT049 29/18 A3003 RMK AO2 T02880180 TSNO